createdAt,value
2023-05-07T00:00:24.012Z,133.98
2023-05-07T00:03:15.272Z,56.97
2023-05-07T00:06:08.546Z,68.22
2023-05-07T00:08:37.333Z,57.50
2023-05-07T00:11:05.847Z,48.92
2023-05-07T00:13:36.694Z,40.72
2023-05-07T00:16:05.320Z,42.55
2023-05-07T00:18:33.993Z,50.42
2023-05-07T00:21:02.262Z,46.95
2023-05-07T00:23:31.541Z,64.57
2023-05-07T00:25:59.831Z,57.65
2023-05-07T00:28:29.031Z,75.80
2023-05-07T00:30:57.551Z,52.30
2023-05-07T00:33:27.908Z,113.82
2023-05-07T00:35:56.294Z,85.13
2023-05-07T00:38:24.882Z,162.85
2023-05-07T00:40:53.414Z,94.80
2023-05-07T00:43:22.178Z,70.47
2023-05-07T00:45:51.016Z,73.00
2023-05-07T00:48:20.235Z,132.80
2023-05-07T00:50:49.324Z,120.68
2023-05-07T00:53:17.926Z,59.30
2023-05-07T00:55:47.185Z,106.03
2023-05-07T00:58:16.038Z,159.50
2023-05-07T01:00:44.491Z,134.48
2023-05-07T01:03:13.471Z,81.13
2023-05-07T01:05:43.390Z,81.18
2023-05-07T01:08:13.103Z,72.53
2023-05-07T01:10:44.289Z,59.38
2023-05-07T01:13:14.149Z,67.10
2023-05-07T01:15:44.707Z,52.15
2023-05-07T01:18:15.284Z,47.40
2023-05-07T01:20:44.001Z,44.38
2023-05-07T01:23:13.345Z,42.50
2023-05-07T01:25:41.526Z,51.85
2023-05-07T01:28:11.838Z,52.45
2023-05-07T01:30:44.872Z,40.35
2023-05-07T01:33:16.856Z,46.38
2023-05-07T01:35:48.834Z,42.78
2023-05-07T01:38:19.199Z,49.55
2023-05-07T01:40:48.155Z,43.28
2023-05-07T01:43:17.426Z,46.28
2023-05-07T01:45:46.636Z,43.83
2023-05-07T01:48:16.319Z,127.53
2023-05-07T01:50:45.832Z,101.10
2023-05-07T01:53:14.588Z,336.15
2023-05-07T01:55:42.958Z,172.20
2023-05-07T01:58:12.305Z,153.27
2023-05-07T02:00:42.042Z,144.93
2023-05-07T02:03:11.168Z,106.38
2023-05-07T02:05:46.839Z,111.60
2023-05-07T02:08:26.536Z,121.40
2023-05-07T02:10:55.146Z,109.07
2023-05-07T02:13:25.513Z,131.15
2023-05-07T02:15:54.820Z,148.38
2023-05-07T02:18:25.162Z,133.57
2023-05-07T02:20:53.692Z,108.75
2023-05-07T02:23:22.357Z,102.63
2023-05-07T02:25:51.180Z,139.35
2023-05-07T02:28:20.548Z,161.23
2023-05-07T02:30:55.661Z,182.35
2023-05-07T02:33:24.710Z,206.13
2023-05-07T02:35:53.108Z,156.88
2023-05-07T02:38:21.822Z,139.45
2023-05-07T02:40:50.714Z,119.35
2023-05-07T02:43:19.660Z,123.78
2023-05-07T02:45:50.112Z,127.75
2023-05-07T02:48:19.037Z,178.30
2023-05-07T02:50:47.583Z,148.77
2023-05-07T02:53:17.283Z,143.38
2023-05-07T02:55:45.490Z,156.35
2023-05-07T02:58:14.061Z,218.07
2023-05-07T03:00:43.578Z,158.10
2023-05-07T03:03:46.034Z,181.18
2023-05-07T03:06:15.184Z,124.40
2023-05-07T03:08:43.736Z,117.53
2023-05-07T03:11:12.085Z,91.00
2023-05-07T03:13:40.742Z,94.72
2023-05-07T03:16:09.484Z,85.78
2023-05-07T03:18:39.004Z,131.50
2023-05-07T03:21:07.672Z,75.32
2023-05-07T03:23:36.378Z,74.65
2023-05-07T03:26:04.598Z,75.15
2023-05-07T03:28:33.436Z,75.05
2023-05-07T03:33:36.079Z,89.93
2023-05-07T03:36:05.736Z,106.78
2023-05-07T03:38:34.535Z,167.65
2023-05-07T03:41:03.089Z,88.30
2023-05-07T03:43:32.318Z,66.80
2023-05-07T03:46:07.129Z,66.70
2023-05-07T03:48:36.524Z,77.65
2023-05-07T03:51:05.592Z,90.70
2023-05-07T03:53:35.722Z,86.57
2023-05-07T03:56:04.682Z,116.05
2023-05-07T03:58:37.794Z,98.65
2023-05-07T04:01:28.709Z,114.80
2023-05-07T04:03:58.849Z,71.38
2023-05-07T04:06:27.355Z,97.93
2023-05-07T04:08:56.154Z,64.03
2023-05-07T04:11:28.802Z,113.68
2023-05-07T04:13:58.173Z,75.85
2023-05-07T04:16:26.513Z,74.88
2023-05-07T04:18:55.166Z,111.13
2023-05-07T04:21:23.658Z,97.93
2023-05-07T04:23:53.645Z,114.40
2023-05-07T04:26:22.500Z,174.23
2023-05-07T04:28:51.108Z,238.35
2023-05-07T04:31:20.009Z,205.50
2023-05-07T04:33:52.918Z,330.48
2023-05-07T04:36:22.582Z,332.75
2023-05-07T04:39:00.732Z,386.73
2023-05-07T04:41:29.486Z,331.48
2023-05-07T04:44:00.153Z,310.80
2023-05-07T04:46:32.402Z,215.40
2023-05-07T04:49:01.162Z,180.30
2023-05-07T04:51:30.005Z,182.40
2023-05-07T04:53:58.646Z,253.52
2023-05-07T04:56:31.002Z,151.43
2023-05-07T04:59:01.207Z,166.40
2023-05-07T05:01:30.074Z,145.88
2023-05-07T05:04:01.454Z,123.35
2023-05-07T05:06:31.715Z,130.55
2023-05-07T05:09:01.542Z,204.88
2023-05-07T05:11:33.006Z,96.93
2023-05-07T05:14:03.162Z,104.22
2023-05-07T05:16:31.876Z,94.40
2023-05-07T05:19:00.981Z,99.95
2023-05-07T05:21:29.377Z,94.70
2023-05-07T05:24:03.670Z,70.82
2023-05-07T05:26:32.130Z,80.97
2023-05-07T05:29:04.083Z,80.93
2023-05-07T05:31:34.842Z,66.97
2023-05-07T05:34:04.924Z,78.07
2023-05-07T05:36:33.542Z,68.43
2023-05-07T05:39:02.194Z,61.72
2023-05-07T05:41:31.830Z,62.10
2023-05-07T05:44:00.565Z,56.88
2023-05-07T05:46:29.327Z,46.28
2023-05-07T05:48:58.782Z,42.58
2023-05-07T05:51:27.639Z,45.10
2023-05-07T05:53:56.506Z,43.78
2023-05-07T05:56:24.810Z,43.45
2023-05-07T05:58:53.552Z,41.60
2023-05-07T06:01:21.794Z,35.28
2023-05-07T06:03:53.307Z,35.47
2023-05-07T06:06:21.708Z,33.22
2023-05-07T06:08:52.827Z,31.58
2023-05-07T06:11:27.198Z,31.75
2023-05-07T06:13:55.871Z,30.45
2023-05-07T06:16:28.711Z,31.55
2023-05-07T06:18:57.894Z,25.17
2023-05-07T06:21:26.482Z,30.52
2023-05-07T06:23:56.006Z,24.45
2023-05-07T06:26:25.412Z,24.45
2023-05-07T06:28:54.929Z,21.80
2023-05-07T06:31:23.421Z,25.95
2023-05-07T06:34:04.803Z,20.33
2023-05-07T06:36:37.404Z,21.27
2023-05-07T06:39:14.901Z,19.88
2023-05-07T06:41:43.656Z,17.88
2023-05-07T06:44:23.794Z,18.45
2023-05-07T06:47:02.020Z,20.33
2023-05-07T06:49:30.998Z,20.88
2023-05-07T06:52:00.145Z,20.77
2023-05-07T06:54:30.476Z,18.80
2023-05-07T06:57:00.405Z,17.13
2023-05-07T06:59:30.685Z,21.27
2023-05-07T07:01:59.304Z,15.23
2023-05-07T07:04:29.448Z,15.35
2023-05-07T07:07:04.182Z,16.13
2023-05-07T07:09:32.761Z,14.20
2023-05-07T07:12:02.484Z,10.95
2023-05-07T07:14:32.094Z,13.88
2023-05-07T07:17:00.547Z,12.23
2023-05-07T07:19:30.191Z,12.43
2023-05-07T07:21:59.620Z,11.23
2023-05-07T07:24:28.160Z,10.70
2023-05-07T07:27:00.137Z,9.82
2023-05-07T07:29:29.343Z,12.82
2023-05-07T07:31:57.853Z,10.60
2023-05-07T07:34:26.800Z,9.55
2023-05-07T07:36:55.072Z,10.68
2023-05-07T07:39:23.677Z,10.32
2023-05-07T07:41:55.714Z,12.82
2023-05-07T07:44:25.809Z,11.50
2023-05-07T07:46:59.795Z,9.07
2023-05-07T07:49:29.599Z,11.35
2023-05-07T07:52:01.288Z,8.70
2023-05-07T07:54:56.424Z,12.20
2023-05-07T07:57:25.444Z,10.88
2023-05-07T07:59:53.890Z,8.68
2023-05-07T08:02:22.942Z,9.15
2023-05-07T08:04:52.243Z,10.40
2023-05-07T08:07:23.815Z,8.75
2023-05-07T08:09:54.244Z,8.40
2023-05-07T08:12:26.608Z,8.13
2023-05-07T08:14:55.968Z,7.30
2023-05-07T08:17:24.670Z,8.68
2023-05-07T08:19:53.069Z,9.25
2023-05-07T08:22:23.006Z,7.28
2023-05-07T08:24:52.753Z,8.90
2023-05-07T08:27:21.302Z,10.13
2023-05-07T08:29:50.010Z,8.88
2023-05-07T08:32:20.779Z,7.83
2023-05-07T08:34:49.225Z,10.20
2023-05-07T08:37:17.779Z,9.20
2023-05-07T08:39:47.788Z,8.15
2023-05-07T08:42:25.132Z,8.90
2023-05-07T08:44:58.400Z,9.63
2023-05-07T08:47:35.222Z,7.22
2023-05-07T08:50:04.431Z,10.38
2023-05-07T08:52:33.124Z,7.10
2023-05-07T08:55:04.137Z,7.93
2023-05-07T08:57:32.805Z,7.38
2023-05-07T09:00:01.286Z,9.20
2023-05-07T09:02:31.046Z,7.50
2023-05-07T09:04:59.952Z,7.53
2023-05-07T09:07:28.828Z,8.43
2023-05-07T09:09:58.128Z,8.70
2023-05-07T09:12:27.551Z,9.68
2023-05-07T09:14:55.787Z,7.60
2023-05-07T09:17:24.501Z,7.25
2023-05-07T09:19:54.910Z,8.35
2023-05-07T09:22:23.516Z,8.25
2023-05-07T09:24:58.996Z,8.10
2023-05-07T09:27:29.544Z,7.75
2023-05-07T09:30:11.635Z,7.30
2023-05-07T09:32:40.538Z,8.52
2023-05-07T09:35:22.689Z,8.85
2023-05-07T09:38:03.074Z,7.18
2023-05-07T09:40:35.577Z,9.15
2023-05-07T09:43:16.872Z,13.20
2023-05-07T09:45:52.754Z,9.35
2023-05-07T09:48:26.723Z,7.47
2023-05-07T09:51:01.136Z,6.70
2023-05-07T09:53:35.090Z,10.05
2023-05-07T09:56:08.919Z,6.55
2023-05-07T09:58:40.647Z,8.43
2023-05-07T10:01:12.835Z,8.50
2023-05-07T10:03:45.657Z,5.57
2023-05-07T10:06:15.784Z,3.97
2023-05-07T10:08:45.604Z,5.72
2023-05-07T10:11:16.097Z,4.97
2023-05-07T10:13:45.717Z,5.38
2023-05-07T10:16:18.301Z,9.02
2023-05-07T10:18:51.182Z,7.57
2023-05-07T10:21:24.888Z,7.93
2023-05-07T10:24:03.620Z,8.50
2023-05-07T10:26:36.129Z,4.88
2023-05-07T10:29:35.244Z,7.40
2023-05-07T10:32:26.382Z,6.07
2023-05-07T10:35:00.107Z,5.50
2023-05-07T10:37:30.561Z,6.55
2023-05-07T10:39:59.762Z,6.28
2023-05-07T10:42:30.167Z,5.72
2023-05-07T10:44:59.101Z,6.13
2023-05-07T10:47:31.985Z,4.07
2023-05-07T10:50:06.396Z,5.80
2023-05-07T10:52:38.502Z,5.47
2023-05-07T10:55:26.177Z,4.75
2023-05-07T11:04:32.647Z,6.53
2023-05-07T11:07:25.501Z,4.78
2023-05-07T11:09:59.355Z,4.40
2023-05-07T11:12:44.065Z,5.05
2023-05-07T11:15:38.513Z,4.18
2023-05-07T11:18:18.366Z,4.88
2023-05-07T11:20:56.594Z,4.78
2023-05-07T11:23:43.611Z,8.88
2023-05-07T11:26:28.357Z,6.35
2023-05-07T11:28:57.940Z,5.82
2023-05-07T11:31:30.641Z,7.13
2023-05-07T11:34:02.577Z,6.65
2023-05-07T11:36:33.567Z,7.20
2023-05-07T11:39:04.764Z,5.07
2023-05-07T11:41:38.285Z,8.07
2023-05-07T11:44:06.903Z,7.68
2023-05-07T11:46:35.177Z,5.07
2023-05-07T11:49:09.774Z,5.47
2023-05-07T11:51:38.143Z,4.80
2023-05-07T11:54:21.181Z,5.35
2023-05-07T11:57:17.209Z,6.20
2023-05-07T12:02:16.348Z,5.03
2023-05-07T12:04:45.938Z,5.63
2023-05-07T12:07:15.623Z,6.25
2023-05-07T12:09:44.976Z,6.18
2023-05-07T12:12:15.616Z,5.40
2023-05-07T12:14:46.010Z,5.88
2023-05-07T12:17:15.815Z,5.15
2023-05-07T12:19:46.354Z,5.70
2023-05-07T12:22:15.191Z,10.23
2023-05-07T12:24:59.675Z,4.00
2023-05-07T12:27:27.981Z,5.03
2023-05-07T12:29:58.913Z,4.88
2023-05-07T12:32:27.339Z,5.05
2023-05-07T12:34:56.131Z,5.00
2023-05-07T12:38:04.107Z,4.53
2023-05-07T12:40:40.541Z,3.87
2023-05-07T12:43:18.671Z,5.40
2023-05-07T12:45:51.951Z,4.97
2023-05-07T12:48:20.952Z,5.65
2023-05-07T12:50:56.804Z,3.97
2023-05-07T12:53:27.303Z,3.67
2023-05-07T12:55:57.807Z,4.88
2023-05-07T12:58:28.993Z,3.65
2023-05-07T13:01:02.018Z,3.75
2023-05-07T13:03:32.803Z,5.82
2023-05-07T13:06:04.774Z,5.30
2023-05-07T13:08:42.492Z,3.03
2023-05-07T13:11:12.202Z,4.80
2023-05-07T13:13:41.743Z,3.83
2023-05-07T13:16:12.647Z,2.90
2023-05-07T13:18:42.166Z,5.63
2023-05-07T13:21:11.340Z,4.72
2023-05-07T13:23:39.957Z,3.35
2023-05-07T13:26:22.557Z,5.00
2023-05-07T13:28:55.670Z,6.18
2023-05-07T13:31:25.216Z,3.20
2023-05-07T13:33:54.041Z,3.15
2023-05-07T13:36:26.583Z,3.13
2023-05-07T13:38:57.923Z,4.57
2023-05-07T13:41:26.656Z,4.05
2023-05-07T13:43:54.955Z,4.65
2023-05-07T13:46:26.311Z,4.63
2023-05-07T13:48:57.309Z,6.30
2023-05-07T13:51:29.728Z,4.10
2023-05-07T13:53:59.626Z,3.78
2023-05-07T13:56:36.628Z,3.67
2023-05-07T13:59:11.287Z,4.38
2023-05-07T14:01:39.868Z,5.45
2023-05-07T14:04:08.962Z,5.97
2023-05-07T14:06:37.580Z,6.25
2023-05-07T14:09:09.108Z,5.32
2023-05-07T14:11:41.037Z,6.07
2023-05-07T14:14:11.688Z,5.95
2023-05-07T14:16:40.411Z,7.57
2023-05-07T14:19:08.705Z,4.05
2023-05-07T14:21:37.274Z,3.35
2023-05-07T14:24:08.140Z,5.82
2023-05-07T14:29:04.904Z,3.25
2023-05-07T14:31:34.602Z,4.47
2023-05-07T14:34:03.438Z,3.55
2023-05-07T14:36:32.890Z,3.22
2023-05-07T14:39:01.410Z,5.03
2023-05-07T14:41:30.997Z,6.85
2023-05-07T14:44:00.039Z,4.70
2023-05-07T14:46:29.838Z,7.00
2023-05-07T14:48:58.718Z,4.80
2023-05-07T14:51:29.245Z,6.10
2023-05-07T14:53:57.564Z,3.90
2023-05-07T14:56:26.173Z,5.22
2023-05-07T14:58:54.559Z,3.40
2023-05-07T15:01:23.214Z,5.13
2023-05-07T15:03:51.712Z,7.22
2023-05-07T15:06:20.849Z,3.88
2023-05-07T15:08:49.818Z,5.65
2023-05-07T15:11:18.378Z,3.22
2023-05-07T15:13:46.684Z,5.75
2023-05-07T15:16:15.403Z,4.20
2023-05-07T15:18:45.038Z,4.13
2023-05-07T15:21:14.275Z,3.83
2023-05-07T15:23:42.669Z,8.25
2023-05-07T15:26:11.721Z,2.80
2023-05-07T15:28:42.265Z,4.53
2023-05-07T15:31:11.249Z,3.15
2023-05-07T15:33:42.000Z,5.55
2023-05-07T15:38:38.733Z,3.17
2023-05-07T15:41:28.112Z,6.15
2023-05-07T15:43:56.502Z,3.72
2023-05-07T15:46:26.767Z,2.80
2023-05-07T15:48:56.784Z,3.08
2023-05-07T15:51:25.438Z,3.00
2023-05-07T15:53:54.159Z,3.58
2023-05-07T15:56:22.774Z,2.80
2023-05-07T15:58:56.109Z,3.33
2023-05-07T16:01:26.064Z,5.70
2023-05-07T16:03:54.972Z,4.07
2023-05-07T16:06:23.675Z,5.80
2023-05-07T16:08:52.306Z,4.95
2023-05-07T16:11:20.792Z,9.55
2023-05-07T16:13:49.526Z,4.63
2023-05-07T16:16:18.171Z,6.60
2023-05-07T16:18:47.940Z,3.53
2023-05-07T16:21:16.391Z,5.55
2023-05-07T16:23:44.909Z,4.93
2023-05-07T16:26:14.839Z,3.65
2023-05-07T16:28:43.441Z,6.20
2023-05-07T16:31:12.131Z,2.75
2023-05-07T16:33:40.849Z,4.50
2023-05-07T16:36:09.431Z,6.95
2023-05-07T16:38:38.691Z,6.82
2023-05-07T16:41:07.708Z,3.17
2023-05-07T16:43:35.962Z,4.03
2023-05-07T16:46:04.801Z,7.28
2023-05-07T16:48:33.200Z,6.10
2023-05-07T16:51:01.796Z,4.47
2023-05-07T16:53:30.048Z,3.75
2023-05-07T16:55:58.600Z,6.47
2023-05-07T16:58:28.197Z,4.97
2023-05-07T17:00:57.138Z,5.68
2023-05-07T17:03:28.323Z,7.28
2023-05-07T17:05:57.009Z,7.82
2023-05-07T17:08:25.418Z,12.40
2023-05-07T17:10:54.489Z,6.60
2023-05-07T17:13:23.235Z,4.97
2023-05-07T17:15:51.969Z,5.45
2023-05-07T17:18:20.431Z,8.30
2023-05-07T17:20:49.036Z,8.60
2023-05-07T17:23:18.565Z,10.38
2023-05-07T17:25:47.176Z,7.47
2023-05-07T17:28:15.682Z,7.75
2023-05-07T17:30:46.598Z,11.57
2023-05-07T17:33:40.642Z,17.40
2023-05-07T17:36:09.581Z,7.22
2023-05-07T17:38:37.882Z,7.70
2023-05-07T17:41:06.440Z,10.43
2023-05-07T17:46:42.119Z,6.38
2023-05-07T17:49:10.481Z,10.32
2023-05-07T17:51:50.252Z,11.10
2023-05-07T17:54:26.293Z,12.90
2023-05-07T17:56:54.893Z,18.73
2023-05-07T17:59:23.270Z,18.67
2023-05-07T18:01:51.841Z,16.30
2023-05-07T18:04:21.853Z,15.60
2023-05-07T18:06:50.690Z,9.55
2023-05-07T18:09:18.946Z,10.50
2023-05-07T18:11:47.697Z,8.55
2023-05-07T18:14:15.980Z,7.18
2023-05-07T18:16:45.116Z,7.45
2023-05-07T18:19:17.264Z,6.22
2023-05-07T18:21:47.158Z,8.20
2023-05-07T18:24:18.584Z,7.25
2023-05-07T18:26:51.362Z,7.50
2023-05-07T18:29:44.954Z,10.32
2023-05-07T18:32:38.106Z,9.10
2023-05-07T18:35:07.306Z,8.15
2023-05-07T18:37:36.079Z,11.18
2023-05-07T18:40:05.984Z,9.20
2023-05-07T18:42:37.067Z,5.10
2023-05-07T18:45:31.191Z,5.97
2023-05-07T18:47:59.526Z,4.57
2023-05-07T18:50:28.082Z,5.07
2023-05-07T18:52:58.348Z,7.22
2023-05-07T18:55:27.512Z,6.95
2023-05-07T18:57:55.920Z,4.65
2023-05-07T19:00:24.775Z,9.75
2023-05-07T19:02:56.392Z,5.93
2023-05-07T19:05:25.346Z,7.18
2023-05-07T19:07:53.603Z,7.80
2023-05-07T19:10:22.331Z,6.05
2023-05-07T19:12:55.806Z,7.05
2023-05-07T19:15:24.560Z,4.50
2023-05-07T19:17:53.274Z,5.40
2023-05-07T19:20:24.659Z,6.13
2023-05-07T19:23:01.313Z,6.38
2023-05-07T19:26:00.542Z,8.57
2023-05-07T19:28:32.411Z,12.40
2023-05-07T19:31:06.565Z,11.40
2023-05-07T19:36:32.587Z,10.63
2023-05-07T19:39:01.122Z,10.65
2023-05-07T19:41:55.642Z,8.02
2023-05-07T19:45:14.238Z,13.48
2023-05-07T19:47:43.051Z,14.32
2023-05-07T19:50:20.571Z,9.60
2023-05-07T19:53:10.005Z,9.95
2023-05-07T19:55:42.560Z,10.25
2023-05-07T19:58:11.544Z,11.23
2023-05-07T20:00:40.972Z,10.48
2023-05-07T20:03:18.638Z,7.75
2023-05-07T20:05:50.781Z,9.07
2023-05-07T20:08:19.476Z,7.13
2023-05-07T20:10:49.108Z,8.32
2023-05-07T20:13:18.324Z,24.55
2023-05-07T20:15:46.633Z,35.67
2023-05-07T20:18:16.214Z,27.95
2023-05-07T20:20:47.001Z,26.13
2023-05-07T20:23:17.335Z,29.73
2023-05-07T20:25:50.473Z,21.67
2023-05-07T20:28:19.273Z,37.85
2023-05-07T20:30:47.583Z,41.95
2023-05-07T20:33:16.224Z,33.22
2023-05-07T20:35:45.224Z,15.50
2023-05-07T20:38:14.022Z,18.80
2023-05-07T20:40:42.471Z,16.55
2023-05-07T20:43:23.730Z,21.92
2023-05-07T20:46:01.975Z,16.00
2023-05-07T20:48:31.329Z,18.67
2023-05-07T20:51:04.165Z,19.33
2023-05-07T20:53:33.069Z,17.42
2023-05-07T20:56:01.332Z,26.05
2023-05-07T20:58:30.360Z,27.10
2023-05-07T21:00:58.718Z,24.38
2023-05-07T21:03:28.776Z,29.88
2023-05-07T21:05:59.999Z,26.52
2023-05-07T21:08:28.654Z,26.52
2023-05-07T21:10:56.898Z,25.35
2023-05-07T21:13:28.480Z,21.95
2023-05-07T21:16:23.327Z,22.65
2023-05-07T21:18:51.968Z,24.17
2023-05-07T21:21:45.280Z,22.95
2023-05-07T21:26:56.297Z,20.27
2023-05-07T21:29:25.051Z,23.73
2023-05-07T21:31:53.304Z,21.70
2023-05-07T21:34:25.054Z,26.63
2023-05-07T21:37:18.009Z,24.85
2023-05-07T21:39:51.380Z,29.25
2023-05-07T21:42:20.796Z,27.27
2023-05-07T21:44:59.193Z,28.90
2023-05-07T21:47:27.578Z,25.73
2023-05-07T21:49:56.546Z,24.98
2023-05-07T21:55:51.863Z,25.92
2023-05-07T21:58:20.163Z,31.90
2023-05-07T22:00:49.101Z,26.15
2023-05-07T22:03:17.455Z,27.73
2023-05-07T22:05:46.622Z,26.05
2023-05-07T22:08:15.915Z,28.05
2023-05-07T22:10:44.692Z,25.65
2023-05-07T22:13:12.978Z,35.63
2023-05-07T22:15:49.587Z,45.08
2023-05-07T22:18:24.871Z,50.22
2023-05-07T22:20:53.695Z,48.00
2023-05-07T22:23:22.418Z,36.70
2023-05-07T22:25:51.745Z,34.60
2023-05-07T22:28:19.962Z,32.50
2023-05-07T22:30:48.526Z,35.50
2023-05-07T22:33:16.801Z,30.73
2023-05-07T22:35:45.751Z,31.00
2023-05-07T22:38:14.008Z,27.95
2023-05-07T22:40:42.847Z,29.50
2023-05-07T22:43:11.035Z,30.58
2023-05-07T22:45:40.427Z,29.25
2023-05-07T22:48:08.759Z,31.58
2023-05-07T22:50:38.184Z,29.98
2023-05-07T22:53:06.953Z,35.63
2023-05-07T22:55:35.752Z,33.15
2023-05-07T22:58:03.993Z,24.00
2023-05-07T23:00:32.580Z,23.67
2023-05-07T23:03:01.081Z,22.42
2023-05-07T23:05:29.681Z,20.77
2023-05-07T23:07:58.433Z,21.65
2023-05-07T23:10:27.562Z,20.67
2023-05-07T23:12:55.891Z,18.58
2023-05-07T23:15:24.492Z,16.05
2023-05-07T23:17:52.907Z,15.82
2023-05-07T23:20:21.570Z,16.25
2023-05-07T23:22:49.859Z,19.63
2023-05-07T23:25:19.269Z,17.00
2023-05-07T23:27:50.108Z,21.23
2023-05-07T23:30:18.823Z,24.13
2023-05-07T23:32:47.006Z,25.13
2023-05-07T23:35:16.156Z,28.23
2023-05-07T23:37:44.448Z,23.35
2023-05-07T23:40:13.400Z,25.45
2023-05-07T23:42:41.900Z,26.63
2023-05-07T23:45:10.767Z,20.55
2023-05-07T23:47:39.545Z,21.98
2023-05-07T23:50:08.411Z,20.13
2023-05-07T23:52:36.600Z,19.33
2023-05-07T23:55:06.217Z,15.75
2023-05-07T23:57:34.450Z,17.85
